Houn Maru — JG5489 — position and weather

sailwx.info

Track history (hours):
 
Tides and Currents Weather Stations Pressure Air Temp Water Temp Dewpoint Dewpoint Depression Visibility Wind Speed Wind Dir Waves Ship Positions

Houn Maru

Last reported at 2015-Mar-29 21:33 UTC. Time now 2015-Mar-29 22:24 UTC.
Position N 34°23' E 135°13'.

Length 91 m; draft 6.1 m.

Type: Tanker. MMSI: 431101172.

Date/timePositionNaut miles runAvg speedWind from/ knotsBaromVisibWave heightAir tempDewpointWater temp
2015-Mar-29 21:33N 34°23' E 135°13'0 0.0
2015-Mar-29 20:33N 34°23' E 135°13'0 0.0
2015-Mar-29 19:30N 34°23' E 135°13'0 0.0
2015-Mar-29 18:33N 34°23' E 135°13'0 0.1
2015-Mar-29 17:33N 34°23' E 135°13'0 0.0
2015-Mar-29 16:33N 34°23' E 135°13'0 0.0
2015-Mar-29 15:33N 34°23' E 135°13'0 0.0
2015-Mar-29 14:33N 34°23' E 135°13'0 0.0
2015-Mar-29 13:33N 34°23' E 135°13'1 0.7
2015-Mar-29 12:33N 34°24' E 135°12'1111.1
2015-Mar-29 11:33N 34°33' E 135°04'8 0.2
2015-Mar-28 02:21N 34°36' E 134°55'810.3
2015-Mar-28 01:33N 34°35' E 135°05'1111.3
2015-Mar-28 00:33N 34°31' E 135°18'1 0.6
2015-Mar-27 23:29N 34°31' E 135°19'0 0.0
2015-Mar-27 22:11N 34°31' E 135°19'0 0.0
2015-Mar-27 21:29N 34°31' E 135°19'0 0.0
2015-Mar-27 20:23N 34°31' E 135°19'0 0.0
2015-Mar-27 19:29N 34°31' E 135°19'0 0.0
2015-Mar-27 18:29N 34°31' E 135°19'0 0.0
2015-Mar-27 17:29N 34°31' E 135°19'0 0.0
2015-Mar-27 16:29N 34°31' E 135°19'0 0.0
2015-Mar-27 15:29N 34°31' E 135°19'0 0.0
2015-Mar-27 14:11N 34°31' E 135°19'0 0.0
2015-Mar-27 13:29N 34°31' E 135°19'0 0.0
2015-Mar-27 12:05N 34°31' E 135°19'0 0.0
2015-Mar-27 11:29N 34°31' E 135°19'0 0.0
2015-Mar-27 10:17N 34°31' E 135°19'0 0.1
2015-Mar-27 09:29N 34°31' E 135°19'0 0.0
2015-Mar-27 08:29N 34°31' E 135°19'0 0.0
2015-Mar-27 07:17N 34°31' E 135°19'0 0.1
2015-Mar-27 06:29N 34°31' E 135°19'7 7.7
2015-Mar-27 05:33N 34°27' E 135°12'3 0.5
2015-Mar-27 00:09N 34°25' E 135°14'2 3.1
2015-Mar-26 23:25N 34°23' E 135°13'0 0.0
2015-Mar-26 21:10N 34°23' E 135°13'0 0.0
2015-Mar-26 20:22N 34°23' E 135°13'7 8.8
2015-Mar-26 19:33N 34°29' E 135°07'1110.6
2015-Mar-26 18:33N 34°37' E 134°59'5 0.1
2015-Mar-25 06:30N 34°35' E 134°53'9 9.9
2015-Mar-25 05:33N 34°36' E 135°05'1211.7
2015-Mar-25 04:33N 34°25' E 135°10'3 3.2
2015-Mar-25 03:33N 34°25' E 135°14'0 0.0
2015-Mar-25 00:12N 34°25' E 135°14'2 3.4
2015-Mar-24 23:31N 34°23' E 135°13'0 0.0
2015-Mar-24 22:25N 34°23' E 135°13'0 0.0
2015-Mar-24 21:25N 34°23' E 135°13'0 0.0
2015-Mar-24 20:31N 34°23' E 135°13'0 0.1
2015-Mar-24 19:31N 34°23' E 135°13'0 0.0
2015-Mar-24 17:25N 34°23' E 135°13'0 0.0
2015-Mar-24 16:31N 34°23' E 135°13'0 0.0
2015-Mar-24 15:07N 34°23' E 135°13'0 0.1
2015-Mar-24 14:31N 34°23' E 135°13'3 3.1
2015-Mar-24 13:33N 34°25' E 135°10'1111.2
2015-Mar-24 12:33N 34°35' E 135°03'10 8.7
2015-Mar-24 11:25N 34°34' E 134°52'3 0.1
2015-Mar-23 09:08N 34°36' E 134°53'710.7
2015-Mar-23 08:31N 34°37' E 135°01'8 8.1
2015-Mar-23 07:33N 34°31' E 135°07'9 8.0
2015-Mar-23 06:29N 34°25' E 135°14'0 0.1
2015-Mar-23 05:32N 34°25' E 135°14'0 0.1
2015-Mar-23 01:33N 34°25' E 135°14'2 1.7
2015-Mar-23 00:22N 34°23' E 135°13'0 0.0
2015-Mar-22 22:16N 34°23' E 135°13'0 0.1
2015-Mar-22 21:28N 34°23' E 135°13'0 0.1
2015-Mar-22 20:28N 34°23' E 135°13'0 0.0
2015-Mar-22 19:16N 34°23' E 135°13'0 0.0
2015-Mar-22 18:22N 34°23' E 135°13'0 0.0
2015-Mar-22 17:22N 34°23' E 135°13'2 1.9
2015-Mar-22 16:33N 34°24' E 135°11'1111.2
2015-Mar-22 15:33N 34°34' E 135°04'9 9.1
2015-Mar-22 14:33N 34°35' E 134°53'1 0.0
2015-Mar-21 08:27N 34°36' E 134°53'910.2
2015-Mar-21 07:33N 34°36' E 135°04'1212.2
2015-Mar-21 06:33N 34°33' E 135°19'4 0.5
2015-Mar-20 22:33N 34°32' E 135°24'4 3.8
2015-Mar-20 21:28N 34°32' E 135°19'0 0.0
2015-Mar-20 20:16N 34°32' E 135°19'0 0.0
2015-Mar-20 19:22N 34°32' E 135°19'0 0.0
2015-Mar-20 18:28N 34°32' E 135°19'0 0.0
2015-Mar-20 17:22N 34°32' E 135°19'0 0.1
2015-Mar-20 16:28N 34°32' E 135°19'8 8.6
2015-Mar-20 15:33N 34°34' E 135°10'1511.5
2015-Mar-20 14:17N 34°34' E 134°52'  
Track history (hours):
 
Tides and Currents Weather Stations Pressure Air Temp Water Temp Dewpoint Dewpoint Depression Visibility Wind Speed Wind Dir Waves Ship Positions

Houn Maru

Last reported at 2015-Mar-29 21:33 UTC. Time now 2015-Mar-29 22:24 UTC.
Position N 34°23' E 135°13'.

Length 91 m; draft 6.1 m.

Type: Tanker. MMSI: 431101172.

Date/timePositionNaut miles runAvg speedWind from/ knotsBaromVisibWave heightAir tempDewpointWater temp
2015-Mar-29 21:33N 34°23' E 135°13'0 0.0
2015-Mar-29 20:33N 34°23' E 135°13'0 0.0
2015-Mar-29 19:30N 34°23' E 135°13'0 0.0
2015-Mar-29 18:33N 34°23' E 135°13'0 0.1
2015-Mar-29 17:33N 34°23' E 135°13'0 0.0
2015-Mar-29 16:33N 34°23' E 135°13'0 0.0
2015-Mar-29 15:33N 34°23' E 135°13'0 0.0
2015-Mar-29 14:33N 34°23' E 135°13'0 0.0
2015-Mar-29 13:33N 34°23' E 135°13'1 0.7
2015-Mar-29 12:33N 34°24' E 135°12'1111.1
2015-Mar-29 11:33N 34°33' E 135°04'8 0.2
2015-Mar-28 02:21N 34°36' E 134°55'810.3
2015-Mar-28 01:33N 34°35' E 135°05'1111.3
2015-Mar-28 00:33N 34°31' E 135°18'1 0.6
2015-Mar-27 23:29N 34°31' E 135°19'0 0.0
2015-Mar-27 22:11N 34°31' E 135°19'0 0.0
2015-Mar-27 21:29N 34°31' E 135°19'0 0.0
2015-Mar-27 20:23N 34°31' E 135°19'0 0.0
2015-Mar-27 19:29N 34°31' E 135°19'0 0.0
2015-Mar-27 18:29N 34°31' E 135°19'0 0.0
2015-Mar-27 17:29N 34°31' E 135°19'0 0.0
2015-Mar-27 16:29N 34°31' E 135°19'0 0.0
2015-Mar-27 15:29N 34°31' E 135°19'0 0.0
2015-Mar-27 14:11N 34°31' E 135°19'0 0.0
2015-Mar-27 13:29N 34°31' E 135°19'0 0.0
2015-Mar-27 12:05N 34°31' E 135°19'0 0.0
2015-Mar-27 11:29N 34°31' E 135°19'0 0.0
2015-Mar-27 10:17N 34°31' E 135°19'0 0.1
2015-Mar-27 09:29N 34°31' E 135°19'0 0.0
2015-Mar-27 08:29N 34°31' E 135°19'0 0.0
2015-Mar-27 07:17N 34°31' E 135°19'0 0.1
2015-Mar-27 06:29N 34°31' E 135°19'7 7.7
2015-Mar-27 05:33N 34°27' E 135°12'3 0.5
2015-Mar-27 00:09N 34°25' E 135°14'2 3.1
2015-Mar-26 23:25N 34°23' E 135°13'0 0.0
2015-Mar-26 21:10N 34°23' E 135°13'0 0.0
2015-Mar-26 20:22N 34°23' E 135°13'7 8.8
2015-Mar-26 19:33N 34°29' E 135°07'1110.6
2015-Mar-26 18:33N 34°37' E 134°59'5 0.1
2015-Mar-25 06:30N 34°35' E 134°53'9 9.9
2015-Mar-25 05:33N 34°36' E 135°05'1211.7
2015-Mar-25 04:33N 34°25' E 135°10'3 3.2
2015-Mar-25 03:33N 34°25' E 135°14'0 0.0
2015-Mar-25 00:12N 34°25' E 135°14'2 3.4
2015-Mar-24 23:31N 34°23' E 135°13'0 0.0
2015-Mar-24 22:25N 34°23' E 135°13'0 0.0
2015-Mar-24 21:25N 34°23' E 135°13'0 0.0
2015-Mar-24 20:31N 34°23' E 135°13'0 0.1
2015-Mar-24 19:31N 34°23' E 135°13'0 0.0
2015-Mar-24 17:25N 34°23' E 135°13'0 0.0
2015-Mar-24 16:31N 34°23' E 135°13'0 0.0
2015-Mar-24 15:07N 34°23' E 135°13'0 0.1
2015-Mar-24 14:31N 34°23' E 135°13'3 3.1
2015-Mar-24 13:33N 34°25' E 135°10'1111.2
2015-Mar-24 12:33N 34°35' E 135°03'10 8.7
2015-Mar-24 11:25N 34°34' E 134°52'3 0.1
2015-Mar-23 09:08N 34°36' E 134°53'710.7
2015-Mar-23 08:31N 34°37' E 135°01'8 8.1
2015-Mar-23 07:33N 34°31' E 135°07'9 8.0
2015-Mar-23 06:29N 34°25' E 135°14'0 0.1
2015-Mar-23 05:32N 34°25' E 135°14'0 0.1
2015-Mar-23 01:33N 34°25' E 135°14'2 1.7
2015-Mar-23 00:22N 34°23' E 135°13'0 0.0
2015-Mar-22 22:16N 34°23' E 135°13'0 0.1
2015-Mar-22 21:28N 34°23' E 135°13'0 0.1
2015-Mar-22 20:28N 34°23' E 135°13'0 0.0
2015-Mar-22 19:16N 34°23' E 135°13'0 0.0
2015-Mar-22 18:22N 34°23' E 135°13'0 0.0
2015-Mar-22 17:22N 34°23' E 135°13'2 1.9
2015-Mar-22 16:33N 34°24' E 135°11'1111.2
2015-Mar-22 15:33N 34°34' E 135°04'9 9.1
2015-Mar-22 14:33N 34°35' E 134°53'1 0.0
2015-Mar-21 08:27N 34°36' E 134°53'910.2
2015-Mar-21 07:33N 34°36' E 135°04'1212.2
2015-Mar-21 06:33N 34°33' E 135°19'4 0.5
2015-Mar-20 22:33N 34°32' E 135°24'4 3.8
2015-Mar-20 21:28N 34°32' E 135°19'0 0.0
2015-Mar-20 20:16N 34°32' E 135°19'0 0.0
2015-Mar-20 19:22N 34°32' E 135°19'0 0.0
2015-Mar-20 18:28N 34°32' E 135°19'0 0.0
2015-Mar-20 17:22N 34°32' E 135°19'0 0.1
2015-Mar-20 16:28N 34°32' E 135°19'8 8.6
2015-Mar-20 15:33N 34°34' E 135°10'1511.5
2015-Mar-20 14:17N 34°34' E 134°52'  

Dump ship's entire track history